createdAt,value
2023-02-13T00:00:47.046Z,22.67
2023-02-13T00:03:15.011Z,21.55
2023-02-13T00:05:42.002Z,22.98
2023-02-13T00:08:08.930Z,22.80
2023-02-13T00:10:35.896Z,23.50
2023-02-13T00:13:02.839Z,22.50
2023-02-13T00:15:29.864Z,22.60
2023-02-13T00:17:56.839Z,22.33
2023-02-13T00:20:23.761Z,23.77
2023-02-13T00:22:50.748Z,24.05
2023-02-13T00:25:17.831Z,23.45
2023-02-13T00:27:44.795Z,24.02
2023-02-13T00:30:12.623Z,23.73
2023-02-13T00:32:39.514Z,24.38
2023-02-13T00:35:06.706Z,23.05
2023-02-13T00:37:34.325Z,23.95
2023-02-13T00:40:01.370Z,23.67
2023-02-13T00:42:28.466Z,23.27
2023-02-13T00:44:55.456Z,23.50
2023-02-13T00:47:23.703Z,23.70
2023-02-13T00:49:50.789Z,23.63
2023-02-13T00:52:17.745Z,23.60
2023-02-13T00:54:44.759Z,23.90
2023-02-13T00:57:12.912Z,23.85
2023-02-13T00:59:39.830Z,23.60
2023-02-13T01:02:06.825Z,24.90
2023-02-13T01:04:33.733Z,24.02
2023-02-13T01:07:00.763Z,24.77
2023-02-13T01:09:27.798Z,24.27
2023-02-13T01:11:54.727Z,24.73
2023-02-13T01:14:21.733Z,24.13
2023-02-13T01:16:49.442Z,24.17
2023-02-13T01:19:16.753Z,24.80
2023-02-13T01:21:44.432Z,24.05
2023-02-13T01:24:11.858Z,24.13
2023-02-13T01:26:39.082Z,24.75
2023-02-13T01:29:06.154Z,23.88
2023-02-13T01:31:33.738Z,24.52
2023-02-13T01:34:00.884Z,24.83
2023-02-13T01:36:27.831Z,24.80
2023-02-13T01:38:58.780Z,25.02
2023-02-13T01:41:28.008Z,25.30
2023-02-13T01:44:01.147Z,24.45
2023-02-13T01:46:42.714Z,24.75
2023-02-13T01:49:20.450Z,24.05
2023-02-13T01:51:53.849Z,24.83
2023-02-13T01:54:31.152Z,25.85
2023-02-13T01:57:12.957Z,25.10
2023-02-13T01:59:47.561Z,25.73
2023-02-13T02:04:44.231Z,25.73
2023-02-13T02:07:27.456Z,25.30
2023-02-13T02:10:02.654Z,25.27
2023-02-13T02:12:39.254Z,24.52
2023-02-13T02:15:08.381Z,24.98
2023-02-13T02:17:35.703Z,25.60
2023-02-13T02:20:40.288Z,25.08
2023-02-13T02:23:56.160Z,26.27
2023-02-13T02:27:13.449Z,25.20
2023-02-13T02:30:03.463Z,25.15
2023-02-13T02:32:44.231Z,25.65
2023-02-13T02:35:20.221Z,23.88
2023-02-13T02:38:20.926Z,25.73
2023-02-13T02:41:04.431Z,25.98
2023-02-13T02:44:15.949Z,26.67
2023-02-13T02:47:13.878Z,24.42
2023-02-13T02:50:01.978Z,25.70
2023-02-13T02:52:39.324Z,25.77
2023-02-13T02:55:35.808Z,25.60
2023-02-13T02:58:38.822Z,24.50
2023-02-13T03:01:31.350Z,24.40
2023-02-13T03:04:20.204Z,23.65
2023-02-13T03:06:59.790Z,25.15
2023-02-13T03:09:53.219Z,24.52
2023-02-13T03:12:42.914Z,25.85
2023-02-13T03:15:10.464Z,24.30
2023-02-13T03:17:57.043Z,25.33
2023-02-13T03:21:12.322Z,24.60
2023-02-13T03:24:05.322Z,24.23
2023-02-13T03:26:46.162Z,24.52
2023-02-13T03:30:09.318Z,24.50
2023-02-13T03:32:56.061Z,23.70
2023-02-13T03:36:16.593Z,24.50
2023-02-13T03:39:10.849Z,24.38
2023-02-13T03:42:06.373Z,24.53
2023-02-13T03:45:11.919Z,24.20
2023-02-13T03:50:11.107Z,25.08
2023-02-13T03:53:00.057Z,24.35
2023-02-13T03:55:55.612Z,24.38
2023-02-13T03:58:56.617Z,24.73
2023-02-13T04:01:31.283Z,24.42
2023-02-13T04:04:19.456Z,23.75
2023-02-13T04:06:57.687Z,22.95
2023-02-13T04:09:29.900Z,24.20
2023-02-13T04:12:16.790Z,22.95
2023-02-13T04:15:04.289Z,22.58
2023-02-13T04:17:39.089Z,24.08
2023-02-13T04:20:07.861Z,22.85
2023-02-13T04:22:35.283Z,21.60
2023-02-13T04:25:02.327Z,22.67
2023-02-13T04:27:29.343Z,22.65
2023-02-13T04:29:56.280Z,22.55
2023-02-13T04:32:23.161Z,22.42
2023-02-13T04:34:50.041Z,22.83
2023-02-13T04:37:16.894Z,22.35
2023-02-13T04:39:43.804Z,21.60
2023-02-13T04:42:10.728Z,21.05
2023-02-13T04:44:37.715Z,20.38
2023-02-13T04:47:04.866Z,22.23
2023-02-13T04:49:31.827Z,21.40
2023-02-13T04:51:58.940Z,19.23
2023-02-13T04:54:25.908Z,21.35
2023-02-13T04:56:53.000Z,20.00
2023-02-13T04:59:19.906Z,20.58
2023-02-13T05:01:47.036Z,20.75
2023-02-13T05:04:16.366Z,20.40
2023-02-13T05:06:43.684Z,20.20
2023-02-13T05:09:11.356Z,19.98
2023-02-13T05:11:38.320Z,19.60
2023-02-13T05:14:05.353Z,20.05
2023-02-13T05:16:33.459Z,19.98
2023-02-13T05:19:00.434Z,19.65
2023-02-13T05:21:46.256Z,18.55
2023-02-13T05:24:13.273Z,18.83
2023-02-13T05:26:40.237Z,19.42
2023-02-13T05:29:19.601Z,18.50
2023-02-13T05:31:56.573Z,20.13
2023-02-13T05:34:26.393Z,20.80
2023-02-13T05:36:53.759Z,19.60
2023-02-13T05:39:21.649Z,19.00
2023-02-13T05:41:49.560Z,18.27
2023-02-13T05:44:17.159Z,19.20
2023-02-13T05:46:45.021Z,19.80
2023-02-13T05:49:15.291Z,19.55
2023-02-13T05:51:47.221Z,17.38
2023-02-13T05:54:14.922Z,17.58
2023-02-13T05:56:41.892Z,18.05
2023-02-13T05:59:08.982Z,19.38
2023-02-13T06:01:35.993Z,18.20
2023-02-13T06:04:04.078Z,18.70
2023-02-13T06:06:31.175Z,18.10
2023-02-13T06:08:58.258Z,17.55
2023-02-13T06:11:25.282Z,18.13
2023-02-13T06:13:52.234Z,17.17
2023-02-13T06:16:19.363Z,18.27
2023-02-13T06:18:46.379Z,16.88
2023-02-13T06:21:13.386Z,17.02
2023-02-13T06:23:40.350Z,18.17
2023-02-13T06:26:09.274Z,17.90
2023-02-13T06:28:36.388Z,17.52
2023-02-13T06:31:03.841Z,17.95
2023-02-13T06:33:30.999Z,18.38
2023-02-13T06:35:58.132Z,18.55
2023-02-13T06:38:25.285Z,18.60
2023-02-13T06:40:52.320Z,19.25
2023-02-13T06:43:19.383Z,19.35
2023-02-13T06:45:47.243Z,19.48
2023-02-13T06:48:14.933Z,18.95
2023-02-13T06:50:41.923Z,19.38
2023-02-13T06:53:08.921Z,19.42
2023-02-13T06:55:36.756Z,18.63
2023-02-13T06:58:03.821Z,20.33
2023-02-13T07:00:31.293Z,19.45
2023-02-13T07:03:06.563Z,20.60
2023-02-13T07:05:33.759Z,20.00
2023-02-13T07:08:00.793Z,20.52
2023-02-13T07:10:28.183Z,20.77
2023-02-13T07:13:05.326Z,20.83
2023-02-13T07:15:35.243Z,21.30
2023-02-13T07:18:03.211Z,20.77
2023-02-13T07:20:30.744Z,21.73
2023-02-13T07:23:02.948Z,21.58
2023-02-13T07:25:30.738Z,20.42
2023-02-13T07:28:06.077Z,20.17
2023-02-13T07:30:34.873Z,20.27
2023-02-13T07:33:04.302Z,20.27
2023-02-13T07:35:32.408Z,20.05
2023-02-13T07:38:00.667Z,20.33
2023-02-13T07:40:27.993Z,20.48
2023-02-13T07:42:56.521Z,21.15
2023-02-13T07:45:23.498Z,20.13
2023-02-13T07:47:50.513Z,19.75
2023-02-13T07:50:17.796Z,20.05
2023-02-13T07:52:44.824Z,21.13
2023-02-13T07:55:11.870Z,19.42
2023-02-13T07:57:38.879Z,19.65
2023-02-13T08:00:06.917Z,20.15
2023-02-13T08:02:39.238Z,18.83
2023-02-13T08:05:07.148Z,18.50
2023-02-13T08:07:34.850Z,18.48
2023-02-13T08:10:20.811Z,19.65
2023-02-13T08:12:48.177Z,18.73
2023-02-13T08:15:16.275Z,17.83
2023-02-13T08:17:43.240Z,18.23
2023-02-13T08:20:11.044Z,18.15
2023-02-13T08:22:39.103Z,18.48
2023-02-13T08:25:07.650Z,18.95
2023-02-13T08:27:34.693Z,17.58
2023-02-13T08:30:03.194Z,18.40
2023-02-13T08:32:30.256Z,17.77
2023-02-13T08:34:57.328Z,17.35
2023-02-13T08:37:24.735Z,17.50
2023-02-13T08:39:51.765Z,17.25
2023-02-13T08:42:18.715Z,17.17
2023-02-13T08:44:46.017Z,17.35
2023-02-13T08:47:13.112Z,16.13
2023-02-13T08:49:40.152Z,17.10
2023-02-13T08:52:07.211Z,16.48
2023-02-13T08:54:36.102Z,16.60
2023-02-13T08:57:03.630Z,16.45
2023-02-13T08:59:30.633Z,16.38
2023-02-13T09:01:58.232Z,16.25
2023-02-13T09:04:25.260Z,14.82
2023-02-13T09:06:52.265Z,16.25
2023-02-13T09:09:19.336Z,15.77
2023-02-13T09:11:46.316Z,15.45
2023-02-13T09:14:13.352Z,15.60
2023-02-13T09:16:40.369Z,14.70
2023-02-13T09:19:07.358Z,15.25
2023-02-13T09:21:34.625Z,15.88
2023-02-13T09:24:01.591Z,15.00
2023-02-13T09:26:28.562Z,15.05
2023-02-13T09:28:55.593Z,15.57
2023-02-13T09:31:24.305Z,15.43
2023-02-13T09:33:51.817Z,16.45
2023-02-13T09:36:22.432Z,14.75
2023-02-13T09:41:35.076Z,15.40
2023-02-13T09:44:35.362Z,15.25
2023-02-13T09:47:21.489Z,14.95
2023-02-13T09:49:54.540Z,16.13
2023-02-13T09:52:21.761Z,15.18
2023-02-13T09:54:48.794Z,14.80
2023-02-13T09:57:36.532Z,15.50
2023-02-13T10:00:19.226Z,15.45
2023-02-13T10:02:58.296Z,13.55
2023-02-13T10:05:44.395Z,14.70
2023-02-13T10:08:24.261Z,14.57
2023-02-13T10:11:01.753Z,14.60
2023-02-13T10:14:09.372Z,13.93
2023-02-13T10:16:50.827Z,14.98
2023-02-13T10:19:50.415Z,14.70
2023-02-13T10:22:29.549Z,13.98
2023-02-13T10:25:25.756Z,13.60
2023-02-13T10:28:09.772Z,13.82
2023-02-13T10:30:52.942Z,14.13
2023-02-13T10:33:30.404Z,14.05
2023-02-13T10:36:09.752Z,14.10
2023-02-13T10:38:45.274Z,13.57
2023-02-13T10:41:27.077Z,14.00
2023-02-13T10:44:25.477Z,13.90
2023-02-13T10:47:31.872Z,14.30
2023-02-13T10:50:32.763Z,16.75
2023-02-13T10:53:40.298Z,14.40
2023-02-13T10:56:28.853Z,13.45
2023-02-13T10:59:33.794Z,17.30
2023-02-13T11:02:22.546Z,18.90
2023-02-13T11:04:54.195Z,18.00
2023-02-13T11:07:25.029Z,22.40
2023-02-13T11:10:00.086Z,14.02
2023-02-13T11:12:34.698Z,18.08
2023-02-13T11:15:05.956Z,17.30
2023-02-13T11:17:39.674Z,12.93
2023-02-13T11:20:34.303Z,12.70
2023-02-13T11:23:29.306Z,14.15
2023-02-13T11:28:34.028Z,13.35
2023-02-13T11:31:29.461Z,60.22
2023-02-13T11:33:59.308Z,15.20
2023-02-13T11:36:32.216Z,12.48
2023-02-13T11:39:07.634Z,12.52
2023-02-13T11:41:42.748Z,12.60
2023-02-13T11:44:32.709Z,14.15
2023-02-13T11:47:03.215Z,13.77
2023-02-13T11:49:35.705Z,13.73
2023-02-13T11:52:27.883Z,12.13
2023-02-13T11:55:25.068Z,12.45
2023-02-13T11:58:21.662Z,13.43
2023-02-13T12:00:48.703Z,13.27
2023-02-13T12:03:21.756Z,12.73
2023-02-13T12:06:08.856Z,13.57
2023-02-13T12:08:39.125Z,12.85
2023-02-13T12:11:35.503Z,12.93
2023-02-13T12:14:02.740Z,12.52
2023-02-13T12:16:42.256Z,12.73
2023-02-13T12:19:21.966Z,12.38
2023-02-13T12:22:07.062Z,12.25
2023-02-13T12:25:06.021Z,12.57
2023-02-13T12:28:03.429Z,12.27
2023-02-13T12:30:36.668Z,12.73
2023-02-13T12:33:17.892Z,12.95
2023-02-13T12:36:06.812Z,12.90
2023-02-13T12:38:59.974Z,12.52
2023-02-13T12:42:04.362Z,12.35
2023-02-13T12:44:50.459Z,12.40
2023-02-13T12:47:30.683Z,12.80
2023-02-13T12:50:25.310Z,13.80
2023-02-13T12:53:30.529Z,15.27
2023-02-13T12:56:44.213Z,13.00
2023-02-13T12:59:35.782Z,13.90
2023-02-13T13:02:38.190Z,12.38
2023-02-13T13:05:41.012Z,11.68
2023-02-13T13:08:37.882Z,11.85
2023-02-13T13:11:23.194Z,11.85
2023-02-13T13:14:09.184Z,12.25
2023-02-13T13:17:04.731Z,11.77
2023-02-13T13:20:14.469Z,11.48
2023-02-13T13:23:03.849Z,11.90
2023-02-13T13:25:55.253Z,11.68
2023-02-13T13:28:41.486Z,11.75
2023-02-13T13:31:12.133Z,10.93
2023-02-13T13:33:46.001Z,11.65
2023-02-13T13:36:49.413Z,11.80
2023-02-13T13:39:57.587Z,11.30
2023-02-13T13:42:47.665Z,11.05
2023-02-13T13:45:25.386Z,11.15
2023-02-13T13:48:53.959Z,16.27
2023-02-13T13:51:28.021Z,11.45
2023-02-13T13:54:00.903Z,11.38
2023-02-13T13:57:01.915Z,10.55
2023-02-13T13:59:38.059Z,11.27
2023-02-13T14:02:17.789Z,10.93
2023-02-13T14:05:23.339Z,10.88
2023-02-13T14:08:39.712Z,10.73
2023-02-13T14:11:45.683Z,11.40
2023-02-13T14:14:29.470Z,11.18
2023-02-13T14:17:04.802Z,10.65
2023-02-13T14:19:40.395Z,11.13
2023-02-13T14:22:19.438Z,11.55
2023-02-13T14:25:05.288Z,10.88
2023-02-13T14:27:37.431Z,10.52
2023-02-13T14:30:29.620Z,10.35
2023-02-13T14:33:03.212Z,10.50
2023-02-13T14:35:35.442Z,10.65
2023-02-13T14:38:08.147Z,10.50
2023-02-13T14:40:48.857Z,10.32
2023-02-13T14:43:46.193Z,10.07
2023-02-13T14:46:41.624Z,10.48
2023-02-13T14:49:23.343Z,10.82
2023-02-13T14:52:05.380Z,11.18
2023-02-13T14:54:42.485Z,11.15
2023-02-13T14:57:21.560Z,10.35
2023-02-13T15:00:08.678Z,10.70
2023-02-13T15:02:45.122Z,9.90
2023-02-13T15:05:22.130Z,11.68
2023-02-13T15:07:59.021Z,9.90
2023-02-13T15:10:44.929Z,11.02
2023-02-13T15:13:40.971Z,9.90
2023-02-13T15:16:14.776Z,11.18
2023-02-13T15:18:48.179Z,11.25
2023-02-13T15:21:22.094Z,10.05
2023-02-13T15:23:55.462Z,10.20
2023-02-13T15:26:28.524Z,10.87
2023-02-13T15:29:29.430Z,10.18
2023-02-13T15:32:00.466Z,11.30
2023-02-13T15:34:34.375Z,10.73
2023-02-13T15:37:02.990Z,10.80
2023-02-13T15:39:32.614Z,10.55
2023-02-13T15:42:03.002Z,10.88
2023-02-13T15:44:38.303Z,10.25
2023-02-13T15:47:15.463Z,10.48
2023-02-13T15:49:46.997Z,10.35
2023-02-13T15:52:32.470Z,10.23
2023-02-13T15:55:00.157Z,10.15
2023-02-13T15:57:28.612Z,11.20
2023-02-13T16:00:02.644Z,11.82
2023-02-13T16:02:49.619Z,11.57
2023-02-13T16:05:26.521Z,11.25
2023-02-13T16:08:45.297Z,11.10
2023-02-13T16:11:19.158Z,11.40
2023-02-13T16:14:01.621Z,11.30
2023-02-13T16:16:45.655Z,11.85
2023-02-13T16:19:52.346Z,11.70
2023-02-13T16:22:53.044Z,11.77
2023-02-13T16:25:26.346Z,12.00
2023-02-13T16:27:58.679Z,11.65
2023-02-13T16:30:41.961Z,11.53
2023-02-13T16:33:14.888Z,11.52
2023-02-13T16:36:16.651Z,10.98
2023-02-13T16:38:45.745Z,11.07
2023-02-13T16:41:32.078Z,11.40
2023-02-13T16:44:04.965Z,11.40
2023-02-13T16:46:35.229Z,11.15
2023-02-13T16:49:08.289Z,11.68
2023-02-13T16:51:56.154Z,11.02
2023-02-13T16:54:44.359Z,11.05
2023-02-13T16:57:14.529Z,10.40
2023-02-13T16:59:46.878Z,11.23
2023-02-13T17:02:16.833Z,11.70
2023-02-13T17:04:51.618Z,10.85
2023-02-13T17:07:24.944Z,10.95
2023-02-13T17:09:57.924Z,11.20
2023-02-13T17:12:27.140Z,10.90
2023-02-13T17:14:57.664Z,10.70
2023-02-13T17:17:29.125Z,11.20
2023-02-13T17:19:56.910Z,13.32
2023-02-13T17:22:35.866Z,16.50
2023-02-13T17:25:09.142Z,22.95
2023-02-13T17:27:36.133Z,22.20
2023-02-13T17:30:04.083Z,13.70
2023-02-13T17:32:31.337Z,13.40
2023-02-13T17:34:58.761Z,13.95
2023-02-13T17:37:27.992Z,12.73
2023-02-13T17:39:55.017Z,12.30
2023-02-13T17:42:28.613Z,12.75
2023-02-13T17:44:58.448Z,13.60
2023-02-13T17:47:26.682Z,13.88
2023-02-13T17:50:01.968Z,12.38
2023-02-13T17:52:32.839Z,13.45
2023-02-13T17:55:00.027Z,14.20
2023-02-13T17:57:28.079Z,14.30
2023-02-13T17:59:56.965Z,15.52
2023-02-13T18:02:27.113Z,14.90
2023-02-13T18:04:54.111Z,13.90
2023-02-13T18:07:21.616Z,13.77
2023-02-13T18:09:48.616Z,13.27
2023-02-13T18:12:23.858Z,13.45
2023-02-13T18:14:52.967Z,13.48
2023-02-13T18:17:21.086Z,12.88
2023-02-13T18:19:48.322Z,12.90
2023-02-13T18:22:15.320Z,13.90
2023-02-13T18:24:43.476Z,13.70
2023-02-13T18:27:13.205Z,19.00
2023-02-13T18:29:40.578Z,18.23
2023-02-13T18:32:10.367Z,26.05
2023-02-13T18:34:39.179Z,24.90
2023-02-13T18:37:07.824Z,16.02
2023-02-13T18:39:36.081Z,16.05
2023-02-13T18:42:03.260Z,13.98
2023-02-13T18:44:30.670Z,13.57
2023-02-13T18:46:58.272Z,12.85
2023-02-13T18:49:26.053Z,13.70
2023-02-13T18:51:53.019Z,13.45
2023-02-13T18:54:19.897Z,13.50
2023-02-13T18:56:48.285Z,12.75
2023-02-13T18:59:15.899Z,13.02
2023-02-13T19:01:43.003Z,12.27
2023-02-13T19:04:11.236Z,13.13
2023-02-13T19:06:43.997Z,12.95
2023-02-13T19:09:11.595Z,13.90
2023-02-13T19:11:39.478Z,16.60
2023-02-13T19:14:07.321Z,14.68
2023-02-13T19:16:35.942Z,15.05
2023-02-13T19:19:07.846Z,14.07
2023-02-13T19:21:38.166Z,14.18
2023-02-13T19:24:09.006Z,14.95
2023-02-13T19:26:36.810Z,16.83
2023-02-13T19:29:04.174Z,16.25
2023-02-13T19:31:33.406Z,18.40
2023-02-13T19:34:00.706Z,18.80
2023-02-13T19:36:29.933Z,17.90
2023-02-13T19:39:02.682Z,17.92
2023-02-13T19:41:29.987Z,17.70
2023-02-13T19:43:56.931Z,17.88
2023-02-13T19:46:27.624Z,17.02
2023-02-13T19:48:54.758Z,18.88
2023-02-13T19:51:28.952Z,18.13
2023-02-13T19:54:01.414Z,19.13
2023-02-13T19:56:30.719Z,17.58
2023-02-13T19:58:58.300Z,16.77
2023-02-13T20:01:28.438Z,17.25
2023-02-13T20:03:56.683Z,16.45
2023-02-13T20:06:30.085Z,17.73
2023-02-13T20:09:03.813Z,16.70
2023-02-13T20:11:30.862Z,17.42
2023-02-13T20:14:00.854Z,15.73
2023-02-13T20:16:32.906Z,15.40
2023-02-13T20:19:08.903Z,17.08
2023-02-13T20:21:36.569Z,16.08
2023-02-13T20:24:04.499Z,14.27
2023-02-13T20:26:31.681Z,15.05
2023-02-13T20:28:59.703Z,15.07
2023-02-13T20:31:29.858Z,15.50
2023-02-13T20:33:58.667Z,16.40
2023-02-13T20:36:30.205Z,20.33
2023-02-13T20:39:01.183Z,18.60
2023-02-13T20:41:32.249Z,18.00
2023-02-13T20:44:02.839Z,17.33
2023-02-13T20:46:33.216Z,16.65
2023-02-13T20:49:00.328Z,15.10
2023-02-13T20:51:27.799Z,15.55
2023-02-13T20:53:55.283Z,15.30
2023-02-13T20:56:25.548Z,14.82
2023-02-13T20:58:56.312Z,15.15
2023-02-13T21:01:30.255Z,15.25
2023-02-13T21:03:57.477Z,14.77
2023-02-13T21:06:31.614Z,14.90
2023-02-13T21:08:59.128Z,16.08
2023-02-13T21:11:28.379Z,16.25
2023-02-13T21:13:57.645Z,16.20
2023-02-13T21:16:29.387Z,17.08
2023-02-13T21:19:00.435Z,16.90
2023-02-13T21:21:31.585Z,16.73
2023-02-13T21:24:04.042Z,17.63
2023-02-13T21:26:32.634Z,17.27
2023-02-13T21:28:59.646Z,16.05
2023-02-13T21:31:47.875Z,16.88
2023-02-13T21:34:17.559Z,16.02
2023-02-13T21:36:45.904Z,16.17
2023-02-13T21:39:14.391Z,15.98
2023-02-13T21:41:44.330Z,15.45
2023-02-13T21:44:16.251Z,15.98
2023-02-13T21:46:45.262Z,17.13
2023-02-13T21:49:18.176Z,17.95
2023-02-13T21:51:46.373Z,16.35
2023-02-13T21:54:14.235Z,17.75
2023-02-13T21:56:43.001Z,17.70
2023-02-13T21:59:15.294Z,17.92
2023-02-13T22:01:49.988Z,16.90
2023-02-13T22:04:18.102Z,18.42
2023-02-13T22:06:51.013Z,18.92
2023-02-13T22:09:20.928Z,19.20
2023-02-13T22:11:49.921Z,20.17
2023-02-13T22:14:18.210Z,19.02
2023-02-13T22:16:46.035Z,18.42
2023-02-13T22:19:16.125Z,17.83
2023-02-13T22:21:44.206Z,17.67
2023-02-13T22:24:11.522Z,18.25
2023-02-13T22:26:42.127Z,18.42
2023-02-13T22:29:12.568Z,18.25
2023-02-13T22:31:40.180Z,18.50
2023-02-13T22:34:07.798Z,17.45
2023-02-13T22:36:40.252Z,17.48
2023-02-13T22:39:10.150Z,16.77
2023-02-13T22:41:38.201Z,18.55
2023-02-13T22:44:05.632Z,18.75
2023-02-13T22:46:34.243Z,17.50
2023-02-13T22:49:01.935Z,17.80
2023-02-13T22:51:33.990Z,19.77
2023-02-13T22:54:02.200Z,20.30
2023-02-13T22:56:31.464Z,19.98
2023-02-13T22:58:59.504Z,19.38
2023-02-13T23:01:28.243Z,17.77
2023-02-13T23:03:56.121Z,17.00
2023-02-13T23:06:24.474Z,17.75
2023-02-13T23:08:53.534Z,16.85
2023-02-13T23:11:45.813Z,17.08
2023-02-13T23:14:14.113Z,16.67
2023-02-13T23:17:01.342Z,16.30
2023-02-13T23:19:29.889Z,17.27
2023-02-13T23:21:58.174Z,17.73
2023-02-13T23:24:25.238Z,16.08
2023-02-13T23:26:52.295Z,15.80
2023-02-13T23:29:19.306Z,16.05
2023-02-13T23:31:46.418Z,16.23
2023-02-13T23:34:13.762Z,15.93
2023-02-13T23:36:40.720Z,17.27
2023-02-13T23:39:07.811Z,15.70
2023-02-13T23:41:34.840Z,16.83
2023-02-13T23:44:01.828Z,16.50
2023-02-13T23:46:28.939Z,16.13
2023-02-13T23:48:56.043Z,16.50
2023-02-13T23:51:25.509Z,16.35
2023-02-13T23:53:56.075Z,15.57
2023-02-13T23:56:25.720Z,15.80
2023-02-13T23:58:55.995Z,16.33
